EST,Max TemperatureF,Mean TemperatureF,Min TemperatureF,Max Dew PointF,MeanDew PointF,Min DewpointF,Max Humidity, Mean Humidity, Min Humidity, Max Sea Level PressureIn, Mean Sea Level PressureIn, Min Sea Level PressureIn, Max VisibilityMiles, Mean VisibilityMiles, Min VisibilityMiles, Max Wind SpeedMPH, Mean Wind SpeedMPH, Max Gust SpeedMPH,PrecipitationIn, CloudCover, Events, WindDirDegrees
2013-11-1,74,62,50,65,56,43,87,61,35,29.85,29.77,29.71,10,9,2,17,5,24,0.17,5,Rain,223
2013-11-2,67,56,44,47,41,32,92,61,30,30.12,29.94,29.84,10,10,10,22,4,26,T,3,,319
2013-11-3,62,52,41,41,38,35,89,63,36,30.30,30.23,30.11,10,10,9,13,5,21,0.00,0,,8
2013-11-4,65,51,37,42,37,35,92,63,34,30.43,30.38,30.33,10,10,7,15,3,23,0.00,4,Fog,158
2013-11-5,66,55,44,46,39,35,83,60,36,30.46,30.39,30.31,10,10,10,9,1,15,0.00,4,,140
2013-11-6,72,61,49,57,51,39,93,74,55,30.32,30.22,30.08,10,9,2,15,5,24,0.02,7,Rain,187
2013-11-7,65,55,44,61,47,29,100,67,33,30.30,30.16,30.04,10,7,1,20,9,25,0.40,6,Rain,334
2013-11-8,59,47,35,32,27,19,82,53,23,30.41,30.33,30.28,10,10,9,18,5,24,0.00,2,,37
2013-11-9,57,45,33,39,32,29,89,63,36,30.36,30.31,30.25,10,10,10,14,3,17,0.00,4,,188
2013-11-10,71,58,44,42,38,30,89,57,24,30.34,30.28,30.23,10,10,10,14,3,15,0.00,2,,355
2013-11-11,68,52,35,40,32,26,89,56,22,30.35,30.25,30.17,10,10,10,9,1,22,0.00,1,,7
2013-11-12,54,44,33,41,30,13,82,58,34,30.56,30.34,30.15,10,10,10,26,14,33,0.00,5,,354
2013-11-13,47,38,29,23,17,15,72,50,28,30.67,30.57,30.50,10,10,10,21,9,29,0.00,0,,16
2013-11-14,58,41,24,26,20,13,81,49,17,30.53,30.42,30.30,10,10,10,10,1,13,0.00,1,,226
2013-11-15,50,41,32,43,35,25,92,71,50,30.31,30.24,30.16,10,8,4,8,2,9,0.16,6,Rain,30
2013-11-16,59,53,46,55,48,42,93,88,83,30.23,30.17,30.12,6,2,1,6,2,12,0.00,8,,18
2013-11-17,70,64,58,66,60,55,97,88,78,30.12,29.97,29.87,10,4,1,10,5,15,0.21,8,Rain,181
2013-11-18,70,60,50,66,42,29,90,58,26,30.16,30.03,29.89,10,10,10,25,9,39,0.06,4,,338
2013-11-19,56,49,42,30,26,23,53,41,29,30.24,30.18,30.14,10,10,10,21,11,29,0.00,4,,11
2013-11-20,60,46,32,34,30,27,85,58,30,30.33,30.26,30.19,10,10,10,13,3,18,0.00,3,,162
2013-11-21,63,57,51,50,43,33,77,63,48,30.37,30.31,30.27,10,10,9,10,4,14,0.00,7,,175
2013-11-22,62,58,53,57,53,50,100,86,72,30.33,30.26,30.21,10,3,1,13,4,15,0.06,8,Rain,205
2013-11-23,55,46,36,50,37,19,89,67,44,30.40,30.30,30.22,10,10,7,23,12,29,T,6,Rain,344
2013-11-24,41,34,26,20,11,2,58,40,21,30.58,30.50,30.42,10,10,10,23,13,29,0.00,3,,15
2013-11-25,45,37,29,33,18,7,92,57,22,30.49,30.37,30.22,10,8,2,9,3,13,0.43,6,Rain,77
2013-11-26,45,40,34,43,36,32,96,89,82,30.21,29.96,29.76,10,4,2,21,7,25,2.67,8,Rain,9
2013-11-27,40,33,25,33,22,14,76,62,47,30.34,30.07,29.84,10,10,9,24,15,31,T,6,Snow,331
2013-11-28,45,33,21,25,19,14,78,56,33,30.51,30.44,30.35,10,10,10,9,2,13,0.00,1,,314
2013-11-29,53,39,24,29,24,20,88,59,29,30.60,30.53,30.49,10,10,10,12,2,17,0.00,1,,18
2013-11-30,55,41,26,29,26,23,92,61,30,30.56,30.45,30.33,10,10,7,12,3,15,0.00,4,,190